Time;durP1;ratioP1;P1;durP2;ratioP2;P2;SDS_P1;SDS_P2;PMS_P1;PMS_P2;Temp;Humidity;BMP_temperature;BMP_pressure;BME280_temperature;BME280_humidity;BME280_pressure;Samples;Min_cycle;Max_cycle;Signal;HPM_P1;HPM_P2
2023/06/12 00:01:44;;;;;;;1.60;1.50;;;;;;;24.01;38.02;100692.06;4490378;28;20470;-61
2023/06/12 00:03:57;;;;;;;1.60;1.50;;;;;;;23.97;37.89;100673.03;4490760;28;20034;-61
2023/06/12 00:06:09;;;;;;;1.60;1.50;;;;;;;24.02;37.71;100687.97;4490938;28;20064;-62
2023/06/12 00:08:22;;;;;;;1.75;1.65;;;;;;;24.00;37.77;100684.63;4474972;28;20034;-61
2023/06/12 00:10:32;;;;;;;1.42;1.30;;;;;;;24.01;37.86;100680.50;4490800;28;20562;-61
2023/06/12 00:12:43;;;;;;;1.58;1.45;;;;;;;24.01;38.04;100686.28;4491018;28;20041;-61
2023/06/12 00:14:53;;;;;;;1.70;1.60;;;;;;;24.02;37.95;100687.97;4489987;28;20045;-61
2023/06/12 00:17:04;;;;;;;2.05;1.60;;;;;;;23.96;37.87;100666.41;4490984;28;20219;-61
2023/06/12 00:19:15;;;;;;;2.75;1.50;;;;;;;23.98;37.63;100675.53;4490953;28;20048;-62
2023/06/12 00:21:25;;;;;;;1.67;1.50;;;;;;;24.00;37.49;100678.88;4490409;28;20050;-61
2023/06/12 00:23:40;;;;;;;1.95;1.60;;;;;;;24.02;37.57;100676.44;4476733;28;20086;-61
2023/06/12 00:25:50;;;;;;;1.67;1.58;;;;;;;24.02;37.34;100673.56;4489753;28;20030;-62
2023/06/12 00:28:01;;;;;;;1.60;1.50;;;;;;;24.00;37.46;100675.13;4490696;28;20038;-61
2023/06/12 00:30:13;;;;;;;1.80;1.50;;;;;;;24.00;37.57;100675.13;4475820;28;20039;-61
2023/06/12 00:32:24;;;;;;;2.38;1.63;;;;;;;23.99;37.20;100665.66;4490176;28;20029;-61
2023/06/12 00:34:35;;;;;;;1.70;1.60;;;;;;;23.97;37.20;100668.09;4482665;28;20122;-61
2023/06/12 00:36:47;;;;;;;1.48;1.35;;;;;;;23.99;36.88;100671.41;4490471;28;20057;-61
2023/06/12 00:38:57;;;;;;;1.40;1.30;;;;;;;24.00;36.67;100667.34;4481421;28;20573;-61
2023/06/12 00:41:08;;;;;;;1.70;1.60;;;;;;;23.99;37.05;100667.72;4490153;28;20090;-61
2023/06/12 00:43:18;;;;;;;1.60;1.50;;;;;;;23.99;37.00;100668.53;4492635;28;20022;-61
2023/06/12 00:45:29;;;;;;;1.70;1.60;;;;;;;23.98;36.90;100666.88;4491556;28;20562;-61
2023/06/12 00:47:41;;;;;;;2.10;1.40;;;;;;;23.97;36.82;100667.28;4481417;28;20038;-61
2023/06/12 00:49:51;;;;;;;1.40;1.30;;;;;;;23.98;37.12;100666.88;4489826;28;21003;-62
2023/06/12 00:52:02;;;;;;;1.50;1.40;;;;;;;24.00;37.15;100673.09;4490191;28;20035;-61
2023/06/12 00:54:13;;;;;;;1.67;1.58;;;;;;;23.96;37.22;100666.41;4481657;28;20062;-62
2023/06/12 00:56:25;;;;;;;2.08;1.40;;;;;;;24.00;37.34;100667.34;4476240;28;21677;-61
2023/06/12 00:58:35;;;;;;;1.55;1.45;;;;;;;23.98;37.38;100664.00;4475646;28;20034;-61
2023/06/12 01:00:48;;;;;;;1.58;1.48;;;;;;;23.96;37.25;100657.75;4471940;28;20248;-62
2023/06/12 01:03:04;;;;;;;1.70;1.50;;;;;;;23.96;37.04;100663.50;4489356;28;20038;-62
2023/06/12 01:05:19;;;;;;;1.60;1.50;;;;;;;23.97;37.48;100661.50;4481718;28;20592;-61
2023/06/12 01:07:39;;;;;;;1.70;1.60;;;;;;;23.96;37.23;100659.81;4490889;28;20121;-61
2023/06/12 01:09:58;;;;;;;1.70;1.60;;;;;;;23.94;37.23;100650.72;4488636;28;20060;-61
2023/06/12 01:12:10;;;;;;;1.70;1.60;;;;;;;23.97;37.05;100662.34;4481163;28;20089;-61
2023/06/12 01:14:21;;;;;;;1.60;1.50;;;;;;;23.95;36.93;100658.97;4490519;28;20637;-61
2023/06/12 01:16:32;;;;;;;1.88;1.60;;;;;;;23.91;36.95;100649.47;4475178;28;20023;-61
2023/06/12 01:18:43;;;;;;;1.70;1.42;;;;;;;23.97;36.91;100656.56;4476461;28;20053;-61
2023/06/12 01:20:55;;;;;;;1.73;1.63;;;;;;;23.95;37.09;100658.97;4490921;28;20188;-61
2023/06/12 01:23:23;;;;;;;1.90;1.70;;;;;;;23.99;36.91;100674.28;4463729;28;21059;-61
2023/06/12 01:25:55;;;;;;;1.70;1.50;;;;;;;23.99;37.63;100665.66;4490979;28;20076;-61
2023/06/12 01:28:27;;;;;;;1.60;1.50;;;;;;;23.98;37.43;100664.00;4489711;28;20030;-61
2023/06/12 01:30:54;;;;;;;1.75;1.65;;;;;;;23.99;37.38;100679.25;4480523;28;20142;-61
2023/06/12 01:33:07;;;;;;;1.50;1.40;;;;;;;23.96;37.26;100666.41;4489667;28;20042;-61
2023/06/12 01:35:23;;;;;;;1.55;1.45;;;;;;;23.97;37.34;100668.09;4480461;28;20133;-61
2023/06/12 01:37:43;;;;;;;1.65;1.52;;;;;;;23.96;37.26;100666.41;4482627;28;20042;-61
2023/06/12 01:40:03;;;;;;;2.00;1.80;;;;;;;23.97;37.33;100673.03;4482865;28;20073;-61
2023/06/12 01:42:14;;;;;;;1.70;1.60;;;;;;;23.95;37.30;100658.97;4481075;28;20042;-61
2023/06/12 01:44:24;;;;;;;1.63;1.52;;;;;;;23.96;37.34;100663.50;4472911;28;20290;-62
2023/06/12 01:46:35;;;;;;;1.63;1.52;;;;;;;23.94;37.66;100665.97;4489339;28;20044;-61
2023/06/12 01:48:46;;;;;;;1.85;1.60;;;;;;;23.91;37.56;100652.34;4471681;28;20034;-61
2023/06/12 01:50:56;;;;;;;1.50;1.40;;;;;;;23.92;37.61;100654.00;4473448;28;20928;-62
2023/06/12 01:53:07;;;;;;;2.40;1.70;;;;;;;23.95;37.46;100656.09;4474974;28;20114;-61
2023/06/12 01:55:21;;;;;;;1.92;1.70;;;;;;;23.95;37.43;100658.13;4464422;28;20153;-61
2023/06/12 01:57:33;;;;;;;1.70;1.60;;;;;;;23.95;37.43;100652.38;4487465;28;20569;-61
2023/06/12 01:59:45;;;;;;;2.25;1.55;;;;;;;23.95;37.21;100658.97;4480224;28;20053;-61
2023/06/12 02:01:55;;;;;;;1.60;1.50;;;;;;;23.95;37.38;100658.13;4481119;28;20038;-62
2023/06/12 02:04:06;;;;;;;1.90;1.70;;;;;;;23.96;37.25;100659.81;4474973;28;20034;-61
2023/06/12 02:06:17;;;;;;;1.70;1.60;;;;;;;23.95;37.31;100658.13;4488263;28;20114;-61
2023/06/12 02:08:29;;;;;;;2.00;1.70;;;;;;;23.95;37.57;100661.03;4476232;28;20081;-61
2023/06/12 02:10:40;;;;;;;1.90;1.70;;;;;;;23.94;37.21;100663.09;4472217;28;20748;-62
2023/06/12 02:12:50;;;;;;;1.70;1.60;;;;;;;23.92;37.67;100653.16;4489710;28;20242;-61
2023/06/12 02:15:01;;;;;;;1.70;1.60;;;;;;;23.89;37.48;100643.25;4480465;28;20402;-61
2023/06/12 02:17:13;;;;;;;1.70;1.60;;;;;;;23.92;37.70;100653.16;4488952;28;20038;-61
2023/06/12 02:19:28;;;;;;;1.50;1.40;;;;;;;23.89;37.86;100642.41;4471022;28;20598;-61
2023/06/12 02:21:39;;;;;;;1.75;1.65;;;;;;;23.93;37.98;100655.66;4479677;28;20149;-61
2023/06/12 02:23:49;;;;;;;1.70;1.60;;;;;;;23.92;37.66;100647.38;4480004;28;21225;-61
2023/06/12 02:26:03;;;;;;;2.00;1.80;;;;;;;23.94;37.80;100659.38;4476806;28;20085;-61
2023/06/12 02:28:13;;;;;;;1.85;1.60;;;;;;;23.93;37.77;100649.88;4489390;28;20107;-61
2023/06/12 02:30:24;;;;;;;1.70;1.60;;;;;;;23.87;37.55;100645.66;4488940;28;20104;-61
2023/06/12 02:32:35;;;;;;;2.03;1.83;;;;;;;23.94;37.77;100660.22;4471403;28;20038;-61
2023/06/12 02:34:47;;;;;;;1.80;1.70;;;;;;;23.89;37.48;100648.16;4472712;28;20046;-61
2023/06/12 02:36:58;;;;;;;1.75;1.65;;;;;;;23.91;37.32;100655.22;4489444;28;20605;-62
2023/06/12 02:39:14;;;;;;;1.60;1.50;;;;;;;23.84;37.54;100646.44;4464692;28;20070;-61
2023/06/12 02:41:26;;;;;;;1.90;1.80;;;;;;;23.90;37.61;100652.69;4480745;28;20066;-61
2023/06/12 02:43:38;;;;;;;1.95;1.77;;;;;;;23.87;37.68;100651.44;4473426;28;20126;-61
2023/06/12 02:45:49;;;;;;;1.75;1.65;;;;;;;23.93;37.27;100661.41;4472770;28;20027;-61
2023/06/12 02:48:00;;;;;;;1.85;1.70;;;;;;;23.92;37.04;100671.28;4474150;28;20038;-61
2023/06/12 02:50:11;;;;;;;1.80;1.70;;;;;;;23.85;37.29;100662.53;4480643;28;20070;-61
2023/06/12 02:52:30;;;;;;;2.08;1.80;;;;;;;23.83;37.15;100656.34;4472773;28;20037;-61
2023/06/12 02:54:41;;;;;;;1.60;1.50;;;;;;;23.75;37.34;100633.53;4458642;28;20031;-61
2023/06/12 02:56:52;;;;;;;2.03;1.83;;;;;;;23.91;37.01;100663.88;4479664;28;20042;-61
2023/06/12 02:59:03;;;;;;;1.65;1.55;;;;;;;23.88;37.01;100653.09;4488090;28;20041;-61
2023/06/12 03:01:16;;;;;;;1.63;1.52;;;;;;;23.93;37.01;100666.38;4488377;28;20040;-61
2023/06/12 03:03:29;;;;;;;2.25;1.52;;;;;;;23.88;36.92;100661.75;4472467;28;20457;-61
2023/06/12 03:05:41;;;;;;;1.50;1.40;;;;;;;23.92;36.48;100664.69;4486984;28;20440;-61
2023/06/12 03:07:52;;;;;;;1.83;1.65;;;;;;;23.92;36.75;100658.91;4457362;28;20030;-61
2023/06/12 03:10:03;;;;;;;1.55;1.45;;;;;;;23.88;36.86;100658.84;4471853;28;20027;-61
2023/06/12 03:12:14;;;;;;;1.58;1.48;;;;;;;23.90;36.80;100670.84;4488831;28;20030;-61
2023/06/12 03:14:26;;;;;;;1.73;1.63;;;;;;;23.89;36.73;100663.41;4490239;28;20034;-61
2023/06/12 03:16:36;;;;;;;2.60;1.60;;;;;;;23.88;37.12;100664.63;4478950;28;20026;-61
2023/06/12 03:18:47;;;;;;;1.50;1.40;;;;;;;23.89;37.16;100674.09;4472195;28;20479;-61
2023/06/12 03:20:57;;;;;;;1.50;1.40;;;;;;;23.90;37.18;100679.50;4489817;28;20141;-61
2023/06/12 03:23:07;;;;;;;1.67;1.58;;;;;;;23.86;37.18;100677.78;4474440;28;20030;-61
2023/06/12 03:25:18;;;;;;;1.77;1.58;;;;;;;23.91;36.81;100680.34;4487054;28;20402;-61
2023/06/12 03:27:29;;;;;;;1.77;1.67;;;;;;;23.80;37.14;100670.69;4479844;28;20641;-60
2023/06/12 03:29:41;;;;;;;1.67;1.40;;;;;;;23.87;37.11;100679.41;4473434;28;20038;-61
2023/06/12 03:31:53;;;;;;;1.80;1.48;;;;;;;23.87;36.95;100683.16;4472336;28;20046;-61
2023/06/12 03:34:04;;;;;;;2.00;1.42;;;;;;;23.89;36.93;100677.00;4469870;28;20638;-60
2023/06/12 03:36:16;;;;;;;1.90;1.55;;;;;;;23.81;37.15;100673.19;4486362;28;20719;-60
2023/06/12 03:38:27;;;;;;;1.50;1.40;;;;;;;23.89;36.95;100674.09;4470939;28;20118;-61
2023/06/12 03:40:38;;;;;;;1.60;1.48;;;;;;;23.88;36.57;100675.34;4472140;28;20050;-60
2023/06/12 03:42:48;;;;;;;1.60;1.50;;;;;;;23.89;36.86;100669.19;4486942;28;20034;-60
2023/06/12 03:44:59;;;;;;;1.52;1.42;;;;;;;23.82;37.10;100663.28;4476891;28;20077;-61
2023/06/12 03:47:11;;;;;;;1.65;1.42;;;;;;;23.87;37.15;100674.50;4473794;28;20617;-61
2023/06/12 03:49:23;;;;;;;1.30;1.20;;;;;;;23.89;38.28;100677.84;4478808;28;20038;-60
2023/06/12 03:51:35;;;;;;;1.85;1.55;;;;;;;23.79;37.95;100669.84;4479240;28;20679;-61
2023/06/12 03:53:46;;;;;;;2.15;1.60;;;;;;;23.79;38.28;100680.53;4461811;28;20542;-60
2023/06/12 03:55:57;;;;;;;2.42;1.60;;;;;;;23.71;38.87;100682.47;4478573;28;20105;-60
2023/06/12 03:58:07;;;;;;;2.75;1.60;;;;;;;23.61;38.81;100686.84;4488510;28;20039;-61
2023/06/12 04:00:20;;;;;;;2.85;1.70;;;;;;;23.60;38.24;100692.97;4472403;28;20031;-60
2023/06/12 04:02:31;;;;;;;2.28;1.60;;;;;;;23.54;38.95;100694.53;4489184;28;20046;-60
2023/06/12 04:04:41;;;;;;;2.30;1.73;;;;;;;23.48;38.49;100698.97;4488738;28;20038;-60
2023/06/12 04:06:53;;;;;;;2.35;1.60;;;;;;;23.40;38.51;100680.69;4487302;28;20034;-61
2023/06/12 04:09:05;;;;;;;1.80;1.70;;;;;;;23.35;38.84;100698.31;4485383;28;20030;-61
2023/06/12 04:11:18;;;;;;;1.92;1.75;;;;;;;23.35;38.74;100700.38;4479491;28;20082;-60
2023/06/12 04:13:29;;;;;;;2.13;1.92;;;;;;;23.30;39.04;100701.53;4487389;28;20038;-60
2023/06/12 04:15:40;;;;;;;1.95;1.70;;;;;;;23.24;39.31;100690.66;4487628;28;20077;-60
2023/06/12 04:17:50;;;;;;;1.83;1.63;;;;;;;23.22;38.84;100705.44;4471837;28;20150;-59
2023/06/12 04:20:01;;;;;;;1.80;1.65;;;;;;;23.24;39.03;100703.03;4489228;28;20096;-60
2023/06/12 04:22:12;;;;;;;1.80;1.70;;;;;;;23.18;39.06;100695.88;4477938;28;20031;-59
2023/06/12 04:24:24;;;;;;;1.70;1.60;;;;;;;23.18;39.49;100704.53;4472989;28;20557;-59
2023/06/12 04:26:36;;;;;;;1.60;1.50;;;;;;;23.14;39.18;100697.88;4479776;28;20121;-60
2023/06/12 04:28:48;;;;;;;1.80;1.70;;;;;;;23.19;39.60;100708.25;4478554;28;20042;-59
2023/06/12 04:31:03;;;;;;;1.60;1.50;;;;;;;23.16;39.24;100703.25;4488426;28;20038;-60
2023/06/12 04:33:14;;;;;;;2.05;1.85;;;;;;;23.17;38.88;100707.78;4487669;28;20034;-59
2023/06/12 04:35:25;;;;;;;1.95;1.70;;;;;;;23.12;38.75;100697.44;4480047;28;20042;-59
2023/06/12 04:37:37;;;;;;;2.00;1.80;;;;;;;23.14;38.28;100708.56;4477068;28;20210;-59
2023/06/12 04:39:47;;;;;;;1.80;1.70;;;;;;;23.10;38.07;100696.97;4473699;28;20142;-59
2023/06/12 04:41:58;;;;;;;2.55;2.05;;;;;;;23.13;38.51;100701.16;4475021;28;20542;-61
2023/06/12 04:44:08;;;;;;;1.90;1.70;;;;;;;23.12;38.74;100699.50;4475305;28;20023;-59
2023/06/12 04:46:23;;;;;;;1.95;1.70;;;;;;;23.10;38.47;100701.91;4460654;28;20043;-59
2023/06/12 04:48:35;;;;;;;1.80;1.70;;;;;;;23.08;39.13;100704.34;4471930;28;20465;-59
2023/06/12 04:50:50;;;;;;;1.80;1.60;;;;;;;23.09;39.42;100706.84;4476835;28;20575;-59
2023/06/12 04:53:01;;;;;;;1.83;1.70;;;;;;;23.01;39.26;100686.91;4491495;28;20126;-60
2023/06/12 04:55:12;;;;;;;2.00;1.80;;;;;;;23.05;39.81;100699.34;4473876;28;20643;-60
2023/06/12 04:57:23;;;;;;;2.05;1.85;;;;;;;23.05;39.76;100699.34;4473857;28;20094;-59
2023/06/12 04:59:37;;;;;;;1.75;1.65;;;;;;;23.02;39.74;100694.34;4488650;28;20530;-59
2023/06/12 05:01:48;;;;;;;2.60;1.80;;;;;;;23.03;39.64;100704.63;4464495;28;21042;-59
2023/06/12 05:03:59;;;;;;;2.22;1.90;;;;;;;23.02;39.95;100697.22;4474241;28;20043;-60
2023/06/12 05:06:09;;;;;;;1.92;1.75;;;;;;;23.04;40.42;100709.22;4489960;28;20034;-60
2023/06/12 05:08:20;;;;;;;1.65;1.55;;;;;;;23.04;40.66;100709.22;4472456;28;20045;-59
2023/06/12 05:10:30;;;;;;;2.10;1.90;;;;;;;23.02;41.56;100705.88;4489929;28;20038;-59
2023/06/12 05:12:41;;;;;;;1.77;1.67;;;;;;;23.02;41.49;100694.34;4489028;28;20376;-59
2023/06/12 05:14:52;;;;;;;2.10;1.90;;;;;;;23.02;41.24;100703.00;4475748;28;20058;-59
2023/06/12 05:17:03;;;;;;;1.90;1.80;;;;;;;22.99;43.40;100698.81;4489315;28;20110;-59
2023/06/12 05:19:13;;;;;;;2.00;1.80;;;;;;;23.02;41.99;100709.59;4473750;28;20030;-59
2023/06/12 05:21:23;;;;;;;2.00;1.85;;;;;;;22.98;42.37;100691.41;4470603;28;20760;-60
2023/06/12 05:23:34;;;;;;;2.13;1.92;;;;;;;23.01;43.86;100698.44;4489523;28;20035;-60
2023/06/12 05:25:44;;;;;;;1.60;1.50;;;;;;;22.97;44.42;100692.63;4472938;28;20031;-59
2023/06/12 05:27:55;;;;;;;1.90;1.80;;;;;;;23.01;43.55;100704.19;4474677;28;20034;-60
2023/06/12 05:30:06;;;;;;;2.15;1.80;;;;;;;22.97;44.61;100698.38;4489116;28;20384;-59
2023/06/12 05:32:17;;;;;;;2.28;2.00;;;;;;;22.93;44.88;100688.00;4473793;28;20031;-60
2023/06/12 05:34:28;;;;;;;2.50;2.20;;;;;;;22.96;45.28;100701.63;4476229;28;21054;-59
2023/06/12 05:36:38;;;;;;;2.30;1.73;;;;;;;22.96;45.82;100707.41;4470557;28;20210;-59
2023/06/12 05:38:49;;;;;;;1.88;1.67;;;;;;;22.96;46.61;100701.63;4474670;28;20081;-59
2023/06/12 05:40:59;;;;;;;2.03;1.80;;;;;;;22.98;46.50;100702.06;4479719;28;20046;-59
2023/06/12 05:43:10;;;;;;;2.13;1.92;;;;;;;22.99;46.02;100701.69;4472414;28;20034;-59
2023/06/12 05:45:21;;;;;;;2.33;2.10;;;;;;;22.94;45.91;100701.19;4479497;28;20573;-59
2023/06/12 05:47:35;;;;;;;2.20;2.00;;;;;;;22.96;44.81;100693.81;4475632;28;20445;-60
2023/06/12 05:49:46;;;;;;;2.03;1.83;;;;;;;22.99;44.40;100709.50;4489794;28;20617;-59
2023/06/12 05:51:56;;;;;;;2.15;1.95;;;;;;;22.98;44.31;100713.59;4470231;28;20042;-59
2023/06/12 05:54:07;;;;;;;2.03;1.83;;;;;;;22.96;43.89;100707.41;4470703;28;20467;-59
2023/06/12 05:56:17;;;;;;;3.22;2.00;;;;;;;22.95;44.33;100699.97;4472660;28;20042;-59
2023/06/12 05:58:28;;;;;;;2.15;1.95;;;;;;;22.94;44.72;100701.19;4475455;28;20465;-59
2023/06/12 06:00:40;;;;;;;2.30;2.10;;;;;;;22.97;45.57;100714.81;4487250;28;20566;-59
2023/06/12 06:03:04;;;;;;;2.25;2.05;;;;;;;23.00;45.72;100719.81;4472874;28;20015;-60
2023/06/12 06:05:16;;;;;;;2.20;2.00;;;;;;;23.00;45.61;100720.66;4471879;28;20030;-60
2023/06/12 06:07:28;;;;;;;2.42;2.22;;;;;;;22.83;45.59;100686.59;4480066;28;20031;-59
2023/06/12 06:09:38;;;;;;;2.53;2.00;;;;;;;22.98;45.32;100704.94;4481783;28;20031;-59
2023/06/12 06:11:49;;;;;;;2.72;2.20;;;;;;;23.00;45.31;100714.88;4487479;28;20029;-59
2023/06/12 06:14:01;;;;;;;2.78;2.10;;;;;;;23.01;45.24;100716.53;4474458;28;20039;-59
2023/06/12 06:16:11;;;;;;;2.40;2.20;;;;;;;23.02;45.09;100720.25;4470479;28;20043;-60
2023/06/12 06:18:23;;;;;;;2.30;2.10;;;;;;;23.02;45.10;100711.63;4478936;28;20026;-60
2023/06/12 06:20:34;;;;;;;2.55;2.35;;;;;;;23.03;45.23;100724.78;4479030;28;20034;-61
2023/06/12 06:22:44;;;;;;;2.50;2.30;;;;;;;23.01;45.09;100712.81;4488812;28;20056;-60
2023/06/12 06:24:55;;;;;;;2.28;2.03;;;;;;;23.03;45.70;100721.91;4479779;28;20873;-62
2023/06/12 06:27:06;;;;;;;2.97;2.22;;;;;;;22.99;45.55;100716.09;4474860;28;20121;-60
2023/06/12 06:29:17;;;;;;;2.28;2.08;;;;;;;23.03;44.84;100719.88;4480260;28;20072;-60
2023/06/12 06:31:27;;;;;;;3.15;2.33;;;;;;;23.05;45.62;100726.09;4455093;28;20132;-60
2023/06/12 06:33:38;;;;;;;2.80;2.30;;;;;;;23.05;46.25;100728.13;4490040;28;20388;-60
2023/06/12 06:35:49;;;;;;;2.20;2.00;;;;;;;22.99;46.19;100718.97;4474464;28;20821;-60
2023/06/12 06:38:00;;;;;;;3.00;2.70;;;;;;;22.97;45.75;100718.53;4479278;28;20046;-60
2023/06/12 06:40:12;;;;;;;2.67;2.25;;;;;;;23.03;46.00;100728.50;4481943;28;20258;-60
2023/06/12 06:42:23;;;;;;;2.50;2.30;;;;;;;23.02;45.93;100729.75;4472597;28;20599;-60
2023/06/12 06:44:49;;;;;;;2.47;2.28;;;;;;;23.04;45.93;100729.34;4476610;28;20900;-63
2023/06/12 06:47:02;;;;;;;2.70;2.22;;;;;;;23.04;46.28;100727.28;4464395;28;20030;-61
2023/06/12 06:49:13;;;;;;;2.40;2.20;;;;;;;23.03;46.39;100724.78;4462982;28;20093;-61
2023/06/12 06:51:24;;;;;;;2.70;2.33;;;;;;;23.06;46.35;100726.91;4465651;28;20035;-61
2023/06/12 06:53:36;;;;;;;2.25;2.05;;;;;;;23.07;46.33;100725.72;4473031;28;20179;-62
2023/06/12 06:55:47;;;;;;;2.53;2.10;;;;;;;23.07;45.14;100722.84;4474767;28;20151;-61
2023/06/12 06:57:59;;;;;;;2.50;2.20;;;;;;;23.07;45.91;100726.53;4457049;28;20057;-61
2023/06/12 07:00:11;;;;;;;2.30;2.10;;;;;;;23.08;45.35;100727.38;4474486;28;20069;-61
2023/06/12 07:02:22;;;;;;;2.38;2.17;;;;;;;23.08;45.37;100721.59;4478841;28;20042;-61
2023/06/12 07:04:33;;;;;;;2.30;2.10;;;;;;;23.08;45.47;100724.50;4464144;28;20027;-61
2023/06/12 07:06:44;;;;;;;2.42;2.22;;;;;;;23.07;45.61;100719.97;4464699;28;20035;-62
2023/06/12 07:08:55;;;;;;;2.33;2.10;;;;;;;23.07;45.33;100725.72;4487578;28;20033;-62
2023/06/12 07:11:05;;;;;;;2.38;2.17;;;;;;;23.05;45.20;100728.13;4474188;28;20037;-62
2023/06/12 07:13:16;;;;;;;2.30;2.10;;;;;;;23.08;46.17;100722.44;4469612;28;20043;-62
2023/06/12 07:15:34;;;;;;;2.38;2.17;;;;;;;23.00;45.86;100688.97;4487206;28;20041;-62
2023/06/12 07:17:45;;;;;;;2.30;2.00;;;;;;;23.22;45.54;100721.88;4473717;28;20497;-62
2023/06/12 07:19:55;;;;;;;2.30;2.10;;;;;;;23.26;45.04;100719.94;4462639;28;20070;-62
2023/06/12 07:22:06;;;;;;;1.95;1.85;;;;;;;23.18;44.92;100700.84;4488351;28;20038;-62
2023/06/12 07:24:20;;;;;;;2.08;1.88;;;;;;;23.31;44.87;100717.56;4463391;28;20109;-62
2023/06/12 07:26:31;;;;;;;2.25;2.00;;;;;;;23.31;44.54;100716.72;4472905;28;20133;-62
2023/06/12 07:28:47;;;;;;;2.30;2.10;;;;;;;23.35;44.86;100709.00;4480534;28;20045;-62
2023/06/12 07:30:58;;;;;;;2.58;2.20;;;;;;;23.33;44.69;100708.53;4478851;28;20045;-62
2023/06/12 07:33:10;;;;;;;2.35;2.15;;;;;;;23.36;44.68;100713.53;4488172;28;20052;-62
2023/06/12 07:35:21;;;;;;;2.20;1.98;;;;;;;23.36;44.52;100714.38;4469897;28;20034;-62
2023/06/12 07:37:35;;;;;;;2.30;1.98;;;;;;;23.30;44.35;100700.69;4488152;28;20056;-62
2023/06/12 07:39:47;;;;;;;2.33;2.13;;;;;;;23.40;44.41;100721.03;4474205;28;20138;-62
2023/06/12 07:41:58;;;;;;;1.90;1.70;;;;;;;23.37;44.44;100712.34;4478873;28;20046;-62
2023/06/12 07:44:12;;;;;;;2.13;1.80;;;;;;;23.41;44.68;100718.97;4481023;28;20026;-62
2023/06/12 07:46:23;;;;;;;2.20;2.00;;;;;;;23.36;44.80;100704.91;4470121;28;20654;-62
2023/06/12 07:48:34;;;;;;;2.10;1.90;;;;;;;23.34;44.63;100701.59;4472395;28;20024;-62
2023/06/12 07:50:45;;;;;;;2.22;2.03;;;;;;;23.42;44.81;100712.03;4479534;28;20038;-62
2023/06/12 07:52:55;;;;;;;2.17;1.98;;;;;;;23.41;44.77;100716.94;4490250;28;20026;-63
2023/06/12 07:55:07;;;;;;;2.10;1.90;;;;;;;23.41;44.66;100713.22;4488317;28;20040;-62
2023/06/12 07:57:17;;;;;;;2.20;2.00;;;;;;;23.44;44.64;100709.56;4484863;28;20049;-62
2023/06/12 07:59:28;;;;;;;1.73;1.63;;;;;;;23.40;44.65;100705.81;4472424;28;20837;-62
2023/06/12 08:01:42;;;;;;;1.73;1.60;;;;;;;23.41;44.49;100705.44;4479141;28;20037;-63
2023/06/12 08:03:56;;;;;;;1.98;1.80;;;;;;;23.44;44.78;100709.56;4473023;28;20134;-62
2023/06/12 08:06:13;;;;;;;1.60;1.45;;;;;;;23.43;44.49;100710.81;4463709;28;20038;-62
2023/06/12 08:08:24;;;;;;;1.50;1.40;;;;;;;23.43;44.41;100710.81;4472571;28;20085;-62
2023/06/12 08:10:35;;;;;;;1.70;1.60;;;;;;;23.44;44.43;100703.81;4487686;28;20042;-62
2023/06/12 08:12:45;;;;;;;1.95;1.80;;;;;;;23.44;44.73;100710.41;4469425;28;20367;-62
2023/06/12 08:14:56;;;;;;;1.80;1.70;;;;;;;23.47;45.51;100708.81;4471960;28;20027;-62
2023/06/12 08:17:06;;;;;;;2.00;1.80;;;;;;;23.47;46.13;100717.44;4474453;28;20070;-62
2023/06/12 08:19:17;;;;;;;2.00;1.80;;;;;;;23.45;45.94;100708.38;4490852;28;20033;-62
2023/06/12 08:21:28;;;;;;;1.60;1.50;;;;;;;23.47;46.53;100705.91;4490285;28;20050;-62
2023/06/12 08:23:38;;;;;;;1.73;1.63;;;;;;;23.47;46.49;100706.75;4477884;28;20136;-61
2023/06/12 08:25:50;;;;;;;2.03;1.67;;;;;;;23.46;46.72;100705.09;4476271;28;20977;-62
2023/06/12 08:28:00;;;;;;;1.70;1.60;;;;;;;23.49;47.16;100706.38;4490656;28;20038;-63
2023/06/12 08:30:11;;;;;;;1.77;1.67;;;;;;;23.48;46.81;100707.59;4474995;28;20921;-62
2023/06/12 08:32:22;;;;;;;1.67;1.58;;;;;;;23.48;46.88;100702.66;4492108;28;20034;-62
2023/06/12 08:34:32;;;;;;;2.03;1.85;;;;;;;23.50;47.18;100705.16;4480975;28;20207;-62
2023/06/12 08:36:43;;;;;;;1.70;1.60;;;;;;;23.36;47.30;100685.56;4474340;28;20073;-62
2023/06/12 08:38:53;;;;;;;1.77;1.67;;;;;;;23.50;47.66;100706.00;4481432;28;20026;-62
2023/06/12 08:41:05;;;;;;;1.90;1.80;;;;;;;23.53;45.22;100710.16;4491439;28;20520;-62
2023/06/12 08:43:16;;;;;;;2.10;1.90;;;;;;;23.52;44.96;100703.56;4480125;28;20034;-62
2023/06/12 08:45:31;;;;;;;3.53;2.10;;;;;;;23.50;45.73;100693.63;4481888;28;20122;-62
2023/06/12 08:47:45;;;;;;;1.95;1.80;;;;;;;23.55;45.35;100702.78;4490008;28;20660;-62
2023/06/12 08:49:56;;;;;;;2.10;1.65;;;;;;;23.56;46.20;100695.81;4490406;28;20038;-62
2023/06/12 08:52:10;;;;;;;4.57;2.53;;;;;;;23.53;46.66;100692.88;4489346;28;20046;-62
2023/06/12 08:54:20;;;;;;;4.00;2.33;;;;;;;23.58;46.35;100695.41;4482085;28;20585;-62
2023/06/12 08:56:32;;;;;;;3.10;2.50;;;;;;;23.59;46.28;100703.66;4475043;28;20043;-63
2023/06/12 08:58:42;;;;;;;3.88;2.45;;;;;;;23.56;45.77;100686.34;4490477;28;20032;-63
2023/06/12 09:00:53;;;;;;;4.38;2.17;;;;;;;23.46;46.69;100663.94;4480717;28;20533;-62
2023/06/12 09:03:06;;;;;;;6.70;2.72;;;;;;;23.63;47.73;100695.09;4479202;28;20063;-62
2023/06/12 09:05:19;;;;;;;8.75;3.30;;;;;;;23.62;48.33;100687.69;4490775;28;20142;-62
2023/06/12 09:07:35;;;;;;;9.38;3.85;;;;;;;23.60;47.82;100687.22;4489379;28;20030;-63
2023/06/12 09:09:46;;;;;;;6.82;3.42;;;;;;;23.63;47.86;100692.22;4489748;28;20608;-62
2023/06/12 09:11:57;;;;;;;8.93;4.40;;;;;;;23.61;47.53;100677.34;4490538;28;20037;-62
2023/06/12 09:14:08;;;;;;;8.32;4.30;;;;;;;23.64;47.25;100691.00;4490922;28;20462;-62
2023/06/12 09:16:20;;;;;;;10.88;4.43;;;;;;;23.67;47.41;100684.47;4489567;28;20743;-63
2023/06/12 09:18:30;;;;;;;7.82;3.75;;;;;;;23.64;47.00;100676.59;4490095;28;20069;-60
2023/06/12 09:20:40;;;;;;;7.68;3.58;;;;;;;23.65;47.04;100681.13;4490072;28;20541;-62
2023/06/12 09:22:51;;;;;;;7.95;3.88;;;;;;;23.68;47.38;100683.25;4490166;28;20376;-62
2023/06/12 09:25:05;;;;;;;8.48;3.60;;;;;;;23.67;47.05;100686.50;4490419;28;21055;-63
2023/06/12 09:27:20;;;;;;;7.80;3.30;;;;;;;23.71;46.60;100696.03;4489730;28;20053;-63
2023/06/12 09:29:33;;;;;;;6.80;3.10;;;;;;;23.72;46.70;100687.03;4489392;28;20768;-65
2023/06/12 09:31:49;;;;;;;6.25;3.05;;;;;;;23.68;46.57;100689.00;4489264;28;20041;-64
2023/06/12 09:34:00;;;;;;;;;;;;;;;23.73;46.78;100700.22;4491856;28;20038;-63
2023/06/12 09:36:12;;;;;;;6.60;3.03;;;;;;;23.72;46.61;100701.44;4490886;28;19921;-66
2023/06/12 09:38:31;;;;;;;6.53;3.17;;;;;;;23.74;46.63;100699.00;4491000;28;20538;-63
2023/06/12 09:40:41;;;;;;;6.72;3.42;;;;;;;23.72;46.79;100694.84;4491124;28;20841;-63
2023/06/12 09:42:51;;;;;;;5.60;2.95;;;;;;;23.72;46.59;100706.38;4476641;28;20113;-63
2023/06/12 09:45:17;;;;;;;5.40;2.90;;;;;;;23.76;46.50;100696.56;4481194;28;20128;-63
2023/06/12 09:47:29;;;;;;;5.55;2.60;;;;;;;23.65;46.55;100684.03;4489090;28;21078;-63
2023/06/12 09:49:40;;;;;;;6.32;3.10;;;;;;;23.77;46.31;100701.09;4490178;28;20565;-63
2023/06/12 09:51:51;;;;;;;6.57;2.90;;;;;;;23.74;46.45;100696.09;4472952;28;20052;-63
2023/06/12 09:54:04;;;;;;;6.03;2.50;;;;;;;23.77;46.39;100692.44;4488866;28;20046;-63
2023/06/12 09:56:15;;;;;;;4.80;2.75;;;;;;;23.73;46.54;100694.44;4489572;28;20037;-63
2023/06/12 09:58:26;;;;;;;5.07;2.60;;;;;;;23.77;46.24;100698.22;4490110;28;20137;-63
2023/06/12 10:00:37;;;;;;;4.90;2.53;;;;;;;23.78;46.33;100694.13;4480178;28;20086;-63
2023/06/12 10:03:00;;;;;;;6.32;2.90;;;;;;;23.80;46.42;100703.19;4490420;28;20045;-62
2023/06/12 10:05:22;;;;;;;5.22;3.30;;;;;;;23.79;46.50;100695.78;4488014;28;20033;-63
2023/06/12 10:07:40;;;;;;;6.05;2.63;;;;;;;23.78;46.40;100697.00;4490435;28;20134;-63
2023/06/12 10:09:51;;;;;;;5.68;2.70;;;;;;;23.77;46.43;100695.31;4489524;28;20033;-63
2023/06/12 10:12:02;;;;;;;5.55;2.80;;;;;;;23.82;46.30;100700.78;4490672;28;20042;-63
2023/06/12 10:14:13;;;;;;;5.47;2.55;;;;;;;23.83;46.12;100696.69;4491514;28;21208;-63